Shikarpur Weather



Shikarpur's Current Weather

Temprature 28.94o clear sky

clear sky

Rain: 0 %

Min Temprature28.94o
Max Temprature28.94o
Humidity37
Wind Speed7.08 m/h
Sun Rise05:31:58
Sun Set19:12:52
Current Time: 24-May-2022 07:35:06
Lat/Lon: 27.9571, 68.6379




Shikarpur's Geo Location



Shikarpur's Weather Forecast

Time Overall Temp Min Temp Max Temp Humidity Wind Speed Rain
24-May-2022 (Tue)
08:00:00 clear sky 28.940 28.940 31.670 37 7.08 m/h 0 %
11:00:00 clear sky 32.010 32.010 38.150 32 5.78 m/h 0 %
14:00:00 clear sky 37.750 37.750 42.150 21 4.71 m/h 0 %
17:00:00 clear sky 42.640 42.640 42.640 10 3.28 m/h 0 %
20:00:00 clear sky 37.400 37.400 37.400 14 3.55 m/h 0 %
23:00:00 clear sky 34.620 34.620 34.620 18 3.58 m/h 0 %
25-May-2022 (Wed)
02:00:00 clear sky 32.740 32.740 32.740 22 2.93 m/h 0 %
05:00:00 clear sky 31.200 31.200 31.200 22 3.6 m/h 0 %
08:00:00 clear sky 35.150 35.150 35.150 18 5.22 m/h 0 %
11:00:00 clear sky 41.330 41.330 41.330 14 3.18 m/h 0 %
14:00:00 clear sky 44.610 44.610 44.610 9 1.42 m/h 0 %
17:00:00 clear sky 45.140 45.140 45.140 7 1.88 m/h 0 %
20:00:00 clear sky 39.750 39.750 39.750 9 3.31 m/h 0 %
23:00:00 clear sky 36.330 36.330 36.330 26 5.71 m/h 0 %
26-May-2022 (Thu)
02:00:00 clear sky 33.310 33.310 33.310 41 4.6 m/h 0 %
05:00:00 clear sky 32.350 32.350 32.350 46 4.67 m/h 0 %
08:00:00 clear sky 36.140 36.140 36.140 36 4.37 m/h 0 %
11:00:00 clear sky 43.090 43.090 43.090 20 4.14 m/h 0 %
14:00:00 clear sky 47.480 47.480 47.480 10 3.53 m/h 0 %
17:00:00 clear sky 47.930 47.930 47.930 7 3.87 m/h 0 %
20:00:00 clear sky 41.590 41.590 41.590 12 5.24 m/h 0 %
23:00:00 clear sky 36.820 36.820 36.820 34 7.84 m/h 0 %
27-May-2022 (Fri)
02:00:00 clear sky 33.630 33.630 33.630 45 6.46 m/h 0 %
05:00:00 clear sky 31.550 31.550 31.550 52 4.35 m/h 0 %
08:00:00 clear sky 35.200 35.200 35.200 40 2.11 m/h 0 %
11:00:00 clear sky 44.800 44.800 44.800 13 3.25 m/h 0 %
14:00:00 clear sky 49.570 49.570 49.570 4 6.17 m/h 0 %
17:00:00 clear sky 49.370 49.370 49.370 3 4.36 m/h 0 %
20:00:00 clear sky 42.160 42.160 42.160 5 4.21 m/h 0 %
23:00:00 clear sky 41.240 41.240 41.240 6 7.11 m/h 0 %
28-May-2022 (Sat)
02:00:00 clear sky 39.680 39.680 39.680 4 7.64 m/h 0 %
05:00:00 clear sky 34.300 34.300 34.300 6 3.96 m/h 0 %
08:00:00 clear sky 41.390 41.390 41.390 4 7.16 m/h 0 %
11:00:00 clear sky 45.660 45.660 45.660 3 7.56 m/h 0 %
14:00:00 clear sky 48.210 48.210 48.210 2 5.9 m/h 0 %
17:00:00 clear sky 47.120 47.120 47.120 2 8.54 m/h 0 %
20:00:00 clear sky 41.330 41.330 41.330 3 7.44 m/h 0 %
23:00:00 clear sky 36.190 36.190 36.190 5 4.4 m/h 0 %
29-May-2022 (Sun)
02:00:00 clear sky 33.440 33.440 33.440 6 2.99 m/h 0 %
05:00:00 clear sky 31.010 31.010 31.010 6 3.75 m/h 0 %

Famous Cities (61)